createdAt,value
2023-01-26T00:01:22.143Z,2.60
2023-01-26T00:03:50.824Z,2.60
2023-01-26T00:06:20.259Z,2.60
2023-01-26T00:08:51.081Z,2.70
2023-01-26T00:11:27.233Z,2.70
2023-01-26T00:13:57.263Z,2.80
2023-01-26T00:16:25.741Z,2.80
2023-01-26T00:18:54.021Z,2.80
2023-01-26T00:21:23.446Z,2.70
2023-01-26T00:23:52.201Z,2.70
2023-01-26T00:26:23.135Z,2.70
2023-01-26T00:28:51.446Z,2.50
2023-01-26T00:31:29.260Z,2.40
2023-01-26T00:33:57.024Z,2.40
2023-01-26T00:36:24.603Z,2.40
2023-01-26T00:38:51.958Z,2.40
2023-01-26T00:41:37.833Z,2.40
2023-01-26T00:44:05.187Z,2.40
2023-01-26T00:46:32.424Z,2.50
2023-01-26T00:49:01.100Z,2.50
2023-01-26T00:51:28.520Z,2.50
2023-01-26T00:53:56.818Z,2.40
2023-01-26T00:56:23.973Z,2.30
2023-01-26T00:58:51.077Z,2.40
2023-01-26T01:01:18.102Z,2.40
2023-01-26T01:03:45.461Z,2.50
2023-01-26T01:06:12.515Z,2.40
2023-01-26T01:08:39.644Z,2.50
2023-01-26T01:11:12.189Z,2.40
2023-01-26T01:13:39.672Z,2.40
2023-01-26T01:16:14.029Z,2.40
2023-01-26T01:18:41.735Z,2.40
2023-01-26T01:21:15.206Z,2.40
2023-01-26T01:23:43.275Z,2.50
2023-01-26T01:26:11.176Z,2.50
2023-01-26T01:28:39.213Z,2.50
2023-01-26T01:31:09.569Z,2.60
2023-01-26T01:33:37.317Z,2.60
2023-01-26T01:36:09.900Z,2.50
2023-01-26T01:38:37.117Z,2.50
2023-01-26T01:41:04.644Z,2.50
2023-01-26T01:43:31.746Z,2.60
2023-01-26T01:46:02.098Z,2.60
2023-01-26T01:48:48.837Z,2.60
2023-01-26T01:51:51.923Z,2.70
2023-01-26T01:54:28.008Z,2.70
2023-01-26T01:57:00.900Z,2.70
2023-01-26T01:59:29.563Z,2.60
2023-01-26T02:01:57.302Z,2.70
2023-01-26T02:04:25.820Z,2.80
2023-01-26T02:06:56.534Z,2.80
2023-01-26T02:09:50.583Z,2.70
2023-01-26T02:12:22.644Z,2.60
2023-01-26T02:14:52.716Z,2.70
2023-01-26T02:17:21.781Z,2.70
2023-01-26T02:20:10.548Z,2.70
2023-01-26T02:23:05.150Z,2.60
2023-01-26T02:25:54.285Z,2.60
2023-01-26T02:28:26.134Z,2.60
2023-01-26T02:30:56.189Z,2.60
2023-01-26T02:33:32.779Z,2.60
2023-01-26T02:36:04.460Z,2.60
2023-01-26T02:38:44.941Z,2.60
2023-01-26T02:41:34.866Z,2.60
2023-01-26T02:44:05.572Z,2.60
2023-01-26T02:46:32.814Z,2.60
2023-01-26T02:49:18.365Z,2.60
2023-01-26T02:51:45.564Z,2.60
2023-01-26T02:54:32.674Z,2.60
2023-01-26T02:57:00.420Z,2.60
2023-01-26T02:59:27.989Z,2.60
2023-01-26T03:01:57.390Z,2.60
2023-01-26T03:04:24.647Z,2.60
2023-01-26T03:06:52.666Z,2.70
2023-01-26T03:09:19.787Z,2.60
2023-01-26T03:11:47.675Z,2.60
2023-01-26T03:14:16.846Z,2.50
2023-01-26T03:16:44.168Z,2.50
2023-01-26T03:19:33.775Z,2.50
2023-01-26T03:22:24.794Z,2.40
2023-01-26T03:25:10.303Z,2.40
2023-01-26T03:27:47.187Z,2.40
2023-01-26T03:30:19.162Z,2.50
2023-01-26T03:32:48.037Z,2.50
2023-01-26T03:35:22.629Z,2.40
2023-01-26T03:37:54.736Z,2.40
2023-01-26T03:41:00.691Z,2.50
2023-01-26T03:43:46.018Z,2.50
2023-01-26T03:46:32.024Z,2.50
2023-01-26T03:49:17.434Z,2.60
2023-01-26T03:52:04.260Z,2.60
2023-01-26T03:54:49.699Z,2.60
2023-01-26T03:57:18.239Z,2.50
2023-01-26T03:59:45.670Z,2.40
2023-01-26T04:02:36.880Z,2.30
2023-01-26T04:05:24.206Z,2.50
2023-01-26T04:08:13.935Z,2.50
2023-01-26T04:10:41.382Z,2.60
2023-01-26T04:13:26.959Z,2.60
2023-01-26T04:16:19.250Z,2.50
2023-01-26T04:19:05.415Z,2.60
2023-01-26T04:21:39.490Z,2.40
2023-01-26T04:24:16.646Z,2.50
2023-01-26T04:26:45.039Z,2.50
2023-01-26T04:29:17.538Z,2.40
2023-01-26T04:31:46.678Z,2.40
2023-01-26T04:34:17.486Z,2.30
2023-01-26T04:36:44.640Z,2.40
2023-01-26T04:39:11.864Z,2.40
2023-01-26T04:41:43.149Z,2.40
2023-01-26T04:44:12.935Z,2.40
2023-01-26T04:46:40.353Z,2.40
2023-01-26T04:49:07.508Z,2.40
2023-01-26T04:51:35.315Z,2.40
2023-01-26T04:54:03.153Z,2.40
2023-01-26T04:56:36.038Z,2.40
2023-01-26T04:59:07.265Z,2.30
2023-01-26T05:01:36.652Z,2.30
2023-01-26T05:04:07.904Z,2.40
2023-01-26T05:06:38.421Z,2.30
2023-01-26T05:09:06.424Z,2.40
2023-01-26T05:11:35.728Z,2.40
2023-01-26T05:14:08.753Z,2.30
2023-01-26T05:16:48.304Z,2.30
2023-01-26T05:19:33.899Z,2.30
2023-01-26T05:22:19.409Z,2.30
2023-01-26T05:25:05.831Z,2.20
2023-01-26T05:27:40.847Z,2.20
2023-01-26T05:30:11.424Z,2.20
2023-01-26T05:32:40.011Z,2.10
2023-01-26T05:35:08.152Z,2.10
2023-01-26T05:37:35.824Z,2.00
2023-01-26T05:40:04.729Z,2.00
2023-01-26T05:42:32.342Z,2.10
2023-01-26T05:45:10.553Z,2.10
2023-01-26T05:47:39.613Z,2.10
2023-01-26T05:50:07.809Z,2.10
2023-01-26T05:52:35.867Z,2.20
2023-01-26T05:55:04.249Z,2.10
2023-01-26T05:57:31.483Z,2.00
2023-01-26T06:00:06.228Z,2.10
2023-01-26T06:02:41.527Z,2.20
2023-01-26T06:05:12.150Z,2.30
2023-01-26T06:07:40.233Z,2.10
2023-01-26T06:10:20.344Z,2.10
2023-01-26T06:13:07.794Z,2.10
2023-01-26T06:15:44.851Z,2.20
2023-01-26T06:18:12.296Z,2.20
2023-01-26T06:20:44.283Z,2.20
2023-01-26T06:23:12.712Z,2.30
2023-01-26T06:25:40.090Z,2.20
2023-01-26T06:28:07.988Z,2.20
2023-01-26T06:30:35.216Z,2.10
2023-01-26T06:33:07.087Z,2.20
2023-01-26T06:35:37.518Z,2.30
2023-01-26T06:38:09.853Z,2.20
2023-01-26T06:40:37.118Z,2.30
2023-01-26T06:43:04.445Z,2.30
2023-01-26T06:45:32.924Z,2.20
2023-01-26T06:48:01.138Z,2.20
2023-01-26T06:50:33.805Z,2.10
2023-01-26T06:53:05.272Z,2.10
2023-01-26T06:55:54.925Z,2.10
2023-01-26T06:58:29.744Z,2.20
2023-01-26T07:01:39.994Z,2.20
2023-01-26T07:04:07.507Z,2.10
2023-01-26T07:06:34.702Z,2.10
2023-01-26T07:09:02.033Z,2.10
2023-01-26T07:11:30.768Z,2.20
2023-01-26T07:13:58.530Z,2.20
2023-01-26T07:16:26.353Z,2.20
2023-01-26T07:18:57.163Z,2.20
2023-01-26T07:21:24.484Z,2.20
2023-01-26T07:23:53.287Z,2.20
2023-01-26T07:26:21.310Z,2.10
2023-01-26T07:28:48.471Z,2.10
2023-01-26T07:31:15.866Z,2.20
2023-01-26T07:33:43.131Z,2.30
2023-01-26T07:36:11.323Z,2.20
2023-01-26T07:38:39.006Z,2.30
2023-01-26T07:41:09.949Z,2.40
2023-01-26T07:43:38.200Z,2.30
2023-01-26T07:46:11.273Z,2.40
2023-01-26T07:48:38.531Z,2.40
2023-01-26T07:51:07.444Z,2.40
2023-01-26T07:53:39.578Z,2.40
2023-01-26T07:56:13.412Z,2.40
2023-01-26T07:58:41.113Z,2.30
2023-01-26T08:01:14.156Z,2.30
2023-01-26T08:03:42.377Z,2.20
2023-01-26T08:06:12.225Z,2.10
2023-01-26T08:08:41.581Z,2.10
2023-01-26T08:11:11.024Z,2.20
2023-01-26T08:13:39.128Z,2.20
2023-01-26T08:16:14.717Z,2.00
2023-01-26T08:18:44.890Z,2.10
2023-01-26T08:21:14.866Z,2.10
2023-01-26T08:23:42.328Z,2.00
2023-01-26T08:26:13.504Z,2.10
2023-01-26T08:28:41.539Z,2.20
2023-01-26T08:31:20.968Z,2.30
2023-01-26T08:33:51.427Z,2.30
2023-01-26T08:36:22.107Z,2.40
2023-01-26T08:38:50.917Z,2.40
2023-01-26T08:41:19.013Z,2.40
2023-01-26T08:43:46.183Z,2.40
2023-01-26T08:46:14.609Z,2.40
2023-01-26T08:48:41.760Z,2.20
2023-01-26T08:51:09.264Z,2.10
2023-01-26T08:53:37.652Z,2.00
2023-01-26T08:56:08.047Z,2.10
2023-01-26T08:58:36.514Z,2.00
2023-01-26T09:01:10.505Z,2.00
2023-01-26T09:03:38.018Z,1.90
2023-01-26T09:06:07.847Z,1.90
2023-01-26T09:08:35.077Z,1.90
2023-01-26T09:11:02.665Z,2.00
2023-01-26T09:13:29.788Z,2.10
2023-01-26T09:15:57.235Z,2.00
2023-01-26T09:18:24.389Z,2.00
2023-01-26T09:20:51.560Z,2.10
2023-01-26T09:23:18.803Z,2.10
2023-01-26T09:25:45.916Z,2.10
2023-01-26T09:28:13.097Z,2.00
2023-01-26T09:30:40.222Z,2.00
2023-01-26T09:33:07.497Z,2.10
2023-01-26T09:35:34.635Z,2.10
2023-01-26T09:38:01.759Z,2.00
2023-01-26T09:41:06.555Z,2.00
2023-01-26T09:43:38.495Z,2.10
2023-01-26T09:46:24.682Z,2.00
2023-01-26T09:49:18.065Z,2.10
2023-01-26T09:51:58.138Z,1.90
2023-01-26T09:54:26.810Z,1.90
2023-01-26T09:56:55.809Z,1.90
2023-01-26T09:59:44.615Z,1.90
2023-01-26T10:02:11.648Z,2.00
2023-01-26T10:04:43.472Z,2.00
2023-01-26T10:07:13.245Z,2.10
2023-01-26T10:09:50.897Z,2.10
2023-01-26T10:12:32.884Z,2.20
2023-01-26T10:15:22.540Z,2.20
2023-01-26T10:17:50.963Z,2.30
2023-01-26T10:20:30.941Z,2.40
2023-01-26T10:23:12.893Z,2.50
2023-01-26T10:25:42.087Z,2.60
2023-01-26T10:28:19.101Z,2.60
2023-01-26T10:30:49.036Z,2.60
2023-01-26T10:33:20.080Z,2.60
2023-01-26T10:35:47.812Z,2.50
2023-01-26T10:38:33.360Z,2.40
2023-01-26T10:41:09.188Z,2.30
2023-01-26T10:43:41.895Z,2.20
2023-01-26T10:46:41.563Z,2.10
2023-01-26T10:49:08.676Z,2.00
2023-01-26T10:51:40.125Z,2.10
2023-01-26T10:54:27.969Z,2.20
2023-01-26T10:57:08.646Z,2.10
2023-01-26T10:59:43.831Z,2.10
2023-01-26T11:02:17.845Z,2.20
2023-01-26T11:05:05.246Z,2.20
2023-01-26T11:07:41.554Z,2.30
2023-01-26T11:10:24.095Z,2.30
2023-01-26T11:13:16.670Z,2.30
2023-01-26T11:16:09.857Z,2.10
2023-01-26T11:18:59.704Z,2.20
2023-01-26T11:21:39.358Z,2.20
2023-01-26T11:24:23.169Z,2.20
2023-01-26T11:27:20.911Z,2.30
2023-01-26T11:30:23.879Z,2.20
2023-01-26T11:33:16.958Z,2.20
2023-01-26T11:36:25.156Z,2.10
2023-01-26T11:39:22.956Z,2.20
2023-01-26T11:42:18.052Z,2.30
2023-01-26T11:44:51.904Z,2.30
2023-01-26T11:47:21.962Z,2.30
2023-01-26T11:50:07.255Z,2.30
2023-01-26T11:52:49.044Z,2.30
2023-01-26T11:55:48.364Z,2.30
2023-01-26T11:58:30.505Z,2.30
2023-01-26T12:01:03.070Z,2.20
2023-01-26T12:03:41.789Z,2.20
2023-01-26T12:06:37.597Z,2.10
2023-01-26T12:09:20.611Z,2.10
2023-01-26T12:12:05.706Z,2.00
2023-01-26T12:14:55.367Z,2.10
2023-01-26T12:17:40.597Z,2.10
2023-01-26T12:20:42.597Z,2.10
2023-01-26T12:23:12.453Z,2.10
2023-01-26T12:25:49.628Z,2.10
2023-01-26T12:28:33.187Z,2.30
2023-01-26T12:31:56.655Z,2.30
2023-01-26T12:34:34.292Z,2.20
2023-01-26T12:37:28.167Z,2.20
2023-01-26T12:40:17.012Z,2.20
2023-01-26T12:43:43.011Z,2.00
2023-01-26T12:46:11.423Z,1.90
2023-01-26T12:49:06.098Z,2.00
2023-01-26T12:51:42.398Z,1.90
2023-01-26T12:54:20.281Z,2.00
2023-01-26T12:56:55.522Z,2.10
2023-01-26T12:59:47.841Z,2.20
2023-01-26T13:02:19.946Z,2.20
2023-01-26T13:04:49.194Z,2.10
2023-01-26T13:07:38.533Z,2.00
2023-01-26T13:10:10.262Z,2.00
2023-01-26T13:12:49.740Z,1.90
2023-01-26T13:15:20.736Z,2.00
2023-01-26T13:17:55.213Z,2.00
2023-01-26T13:20:40.316Z,1.90
2023-01-26T13:23:29.211Z,1.90
2023-01-26T13:26:45.888Z,1.90
2023-01-26T13:29:27.484Z,1.80
2023-01-26T13:32:17.868Z,1.90
2023-01-26T13:35:00.811Z,1.90
2023-01-26T13:37:52.364Z,1.80
2023-01-26T13:40:26.671Z,1.80
2023-01-26T13:43:26.146Z,1.80
2023-01-26T13:46:24.619Z,1.80
2023-01-26T13:48:56.919Z,1.90
2023-01-26T13:51:28.393Z,2.00
2023-01-26T13:54:15.423Z,2.00
2023-01-26T13:57:05.296Z,2.00
2023-01-26T13:59:33.296Z,2.00
2023-01-26T14:02:01.078Z,2.10
2023-01-26T14:04:31.582Z,2.10
2023-01-26T14:07:05.854Z,2.00
2023-01-26T14:09:44.299Z,1.90
2023-01-26T14:12:25.241Z,1.90
2023-01-26T14:15:02.002Z,1.90
2023-01-26T14:17:31.377Z,1.80
2023-01-26T14:20:00.163Z,1.80
2023-01-26T14:22:28.142Z,1.60
2023-01-26T14:24:56.106Z,1.60
2023-01-26T14:27:32.061Z,1.60
2023-01-26T14:29:59.665Z,1.60
2023-01-26T14:32:29.817Z,1.70
2023-01-26T14:35:00.009Z,1.70
2023-01-26T14:37:28.526Z,1.60
2023-01-26T14:40:25.010Z,1.70
2023-01-26T14:42:54.369Z,1.70
2023-01-26T14:45:31.806Z,1.70
2023-01-26T14:48:12.359Z,1.70
2023-01-26T14:50:41.306Z,1.70
2023-01-26T14:53:23.764Z,1.70
2023-01-26T14:55:52.617Z,1.70
2023-01-26T14:58:27.977Z,1.70
2023-01-26T15:00:58.680Z,1.70
2023-01-26T15:03:38.875Z,1.70
2023-01-26T15:06:18.651Z,1.80
2023-01-26T15:09:41.571Z,1.90
2023-01-26T15:12:16.972Z,1.90
2023-01-26T15:14:49.740Z,1.80
2023-01-26T15:17:42.775Z,1.80
2023-01-26T15:20:16.087Z,1.80
2023-01-26T15:22:51.074Z,1.80
2023-01-26T15:25:23.501Z,1.80
2023-01-26T15:28:00.897Z,1.70
2023-01-26T15:30:36.941Z,1.70
2023-01-26T15:33:04.159Z,1.60
2023-01-26T15:35:34.742Z,1.50
2023-01-26T15:38:10.102Z,1.50
2023-01-26T15:40:38.572Z,1.50
2023-01-26T15:43:20.179Z,1.50
2023-01-26T15:46:00.057Z,1.40
2023-01-26T15:48:31.690Z,1.30
2023-01-26T15:50:58.889Z,1.30
2023-01-26T15:53:26.238Z,1.40
2023-01-26T15:55:55.403Z,1.40
2023-01-26T15:58:23.753Z,1.30
2023-01-26T16:00:52.500Z,1.30
2023-01-26T16:03:22.344Z,1.20
2023-01-26T16:05:49.946Z,1.10
2023-01-26T16:08:19.341Z,1.20
2023-01-26T16:10:47.456Z,1.20
2023-01-26T16:13:18.295Z,1.20
2023-01-26T16:15:52.031Z,1.30
2023-01-26T16:18:20.354Z,1.20
2023-01-26T16:20:49.062Z,1.10
2023-01-26T16:23:27.370Z,1.10
2023-01-26T16:25:55.519Z,1.10
2023-01-26T16:28:22.681Z,1.20
2023-01-26T16:30:51.353Z,1.20
2023-01-26T16:33:24.837Z,1.20
2023-01-26T16:35:52.201Z,1.10
2023-01-26T16:38:19.271Z,1.10
2023-01-26T16:40:48.599Z,1.10
2023-01-26T16:43:24.247Z,1.20
2023-01-26T16:45:55.917Z,1.20
2023-01-26T16:48:23.808Z,1.20
2023-01-26T16:50:53.813Z,1.20
2023-01-26T16:53:30.455Z,1.20
2023-01-26T16:55:57.803Z,1.10
2023-01-26T16:58:26.667Z,1.10
2023-01-26T17:00:57.740Z,0.90
2023-01-26T17:03:25.369Z,0.80
2023-01-26T17:05:52.643Z,0.80
2023-01-26T17:08:19.789Z,0.80
2023-01-26T17:11:01.145Z,0.80
2023-01-26T17:13:29.658Z,0.80
2023-01-26T17:15:58.218Z,0.80
2023-01-26T17:18:25.771Z,0.90
2023-01-26T17:20:52.949Z,0.90
2023-01-26T17:23:20.894Z,1.00
2023-01-26T17:25:48.497Z,1.00
2023-01-26T17:28:15.555Z,1.00
2023-01-26T17:30:42.635Z,1.00
2023-01-26T17:33:09.748Z,0.90
2023-01-26T17:35:36.897Z,1.00
2023-01-26T17:38:04.033Z,0.90
2023-01-26T17:40:31.094Z,1.00
2023-01-26T17:42:58.252Z,1.00
2023-01-26T17:45:25.905Z,0.90
2023-01-26T17:47:54.302Z,0.90
2023-01-26T17:50:21.697Z,1.00
2023-01-26T17:52:48.962Z,1.10
2023-01-26T17:55:16.449Z,1.10
2023-01-26T17:57:43.575Z,1.00
2023-01-26T18:00:12.149Z,0.90
2023-01-26T18:02:39.705Z,0.90
2023-01-26T18:05:08.914Z,0.90
2023-01-26T18:07:36.127Z,0.90
2023-01-26T18:10:03.951Z,0.80
2023-01-26T18:12:31.072Z,0.80
2023-01-26T18:14:58.173Z,0.80
2023-01-26T18:17:26.114Z,0.90
2023-01-26T18:19:54.108Z,0.90
2023-01-26T18:22:21.511Z,0.90
2023-01-26T18:24:48.690Z,0.80
2023-01-26T18:27:15.780Z,0.80
2023-01-26T18:29:43.027Z,0.80
2023-01-26T18:32:11.138Z,0.90
2023-01-26T18:34:41.811Z,0.80
2023-01-26T18:37:10.185Z,0.60
2023-01-26T18:39:38.756Z,0.70
2023-01-26T18:42:05.893Z,0.80
2023-01-26T18:44:33.575Z,0.70
2023-01-26T18:47:00.681Z,0.80
2023-01-26T18:49:27.812Z,0.80
2023-01-26T18:51:55.083Z,0.80
2023-01-26T18:54:24.454Z,0.80
2023-01-26T18:56:51.697Z,0.70
2023-01-26T18:59:19.123Z,0.70
2023-01-26T19:01:46.291Z,0.80
2023-01-26T19:04:13.626Z,0.80
2023-01-26T19:06:40.672Z,0.70
2023-01-26T19:09:09.220Z,0.60
2023-01-26T19:11:40.031Z,0.50
2023-01-26T19:14:08.116Z,0.60
2023-01-26T19:16:36.046Z,0.60
2023-01-26T19:19:03.217Z,0.60
2023-01-26T19:21:31.814Z,0.70
2023-01-26T19:24:02.570Z,0.60
2023-01-26T19:26:30.790Z,0.40
2023-01-26T19:28:58.978Z,0.20
2023-01-26T19:31:28.047Z,0.20
2023-01-26T19:33:59.159Z,0.20
2023-01-26T19:36:29.106Z,0.20
2023-01-26T19:38:56.989Z,0.30
2023-01-26T19:41:25.335Z,0.40
2023-01-26T19:43:52.971Z,0.30
2023-01-26T19:46:21.105Z,0.50
2023-01-26T19:48:48.914Z,0.50
2023-01-26T19:51:19.833Z,0.70
2023-01-26T19:53:50.277Z,0.70
2023-01-26T19:56:23.957Z,0.50
2023-01-26T19:59:04.371Z,0.50
2023-01-26T20:01:33.307Z,0.70
2023-01-26T20:04:04.667Z,0.40
2023-01-26T20:06:34.208Z,0.40
2023-01-26T20:09:03.615Z,0.70
2023-01-26T20:11:31.120Z,0.70
2023-01-26T20:14:02.312Z,0.60
2023-01-26T20:16:30.739Z,0.70
2023-01-26T20:18:59.262Z,0.70
2023-01-26T20:21:28.000Z,0.70
2023-01-26T20:23:56.214Z,0.60
2023-01-26T20:26:25.951Z,0.50
2023-01-26T20:28:56.209Z,0.50
2023-01-26T20:31:26.343Z,0.40
2023-01-26T20:33:55.308Z,0.40
2023-01-26T20:36:27.271Z,0.40
2023-01-26T20:38:54.796Z,0.50
2023-01-26T20:41:27.511Z,0.50
2023-01-26T20:44:00.366Z,0.60
2023-01-26T20:46:40.794Z,0.60
2023-01-26T20:49:12.532Z,0.50
2023-01-26T20:51:42.848Z,0.60
2023-01-26T20:54:14.452Z,0.70
2023-01-26T20:56:42.904Z,0.60
2023-01-26T20:59:11.593Z,0.60
2023-01-26T21:01:39.466Z,0.70
2023-01-26T21:04:09.427Z,0.50
2023-01-26T21:06:37.067Z,0.60
2023-01-26T21:09:05.120Z,0.50
2023-01-26T21:11:32.432Z,0.50
2023-01-26T21:14:01.933Z,0.40
2023-01-26T21:16:31.025Z,0.40
2023-01-26T21:18:58.642Z,0.50
2023-01-26T21:21:26.006Z,0.70
2023-01-26T21:23:53.205Z,0.80
2023-01-26T21:26:23.665Z,0.80
2023-01-26T21:29:00.812Z,0.80
2023-01-26T21:31:31.682Z,0.90
2023-01-26T21:34:00.644Z,0.80
2023-01-26T21:36:31.177Z,0.70
2023-01-26T21:38:59.885Z,0.70
2023-01-26T21:41:50.965Z,0.80
2023-01-26T21:44:55.905Z,0.80
2023-01-26T21:47:23.168Z,0.80
2023-01-26T21:49:51.731Z,0.80
2023-01-26T21:52:37.313Z,0.90
2023-01-26T21:55:04.880Z,0.90
2023-01-26T21:57:50.317Z,1.00
2023-01-26T22:00:18.267Z,1.10
2023-01-26T22:02:49.105Z,1.10
2023-01-26T22:05:16.789Z,1.10
2023-01-26T22:07:44.143Z,1.10
2023-01-26T22:10:12.180Z,0.90
2023-01-26T22:12:39.541Z,0.90
2023-01-26T22:15:07.765Z,1.00
2023-01-26T22:17:34.979Z,1.00
2023-01-26T22:20:02.400Z,1.00
2023-01-26T22:22:29.890Z,1.10
2023-01-26T22:24:57.042Z,1.10
2023-01-26T22:27:24.215Z,1.00
2023-01-26T22:29:51.346Z,1.00
2023-01-26T22:32:18.582Z,1.10
2023-01-26T22:34:45.862Z,1.10
2023-01-26T22:37:13.092Z,1.00
2023-01-26T22:39:40.257Z,0.90
2023-01-26T22:42:07.452Z,1.00
2023-01-26T22:44:36.383Z,0.90
2023-01-26T22:47:03.883Z,0.70
2023-01-26T22:49:30.899Z,0.60
2023-01-26T22:51:57.992Z,0.60
2023-01-26T22:54:26.089Z,0.70
2023-01-26T22:56:53.479Z,0.70
2023-01-26T22:59:20.950Z,0.70
2023-01-26T23:01:48.053Z,0.70
2023-01-26T23:04:15.764Z,0.80
2023-01-26T23:06:42.909Z,0.70
2023-01-26T23:09:10.120Z,0.80
2023-01-26T23:11:37.522Z,0.80
2023-01-26T23:14:04.605Z,0.70
2023-01-26T23:16:31.657Z,0.80
2023-01-26T23:18:59.933Z,0.80
2023-01-26T23:21:27.955Z,0.90
2023-01-26T23:23:55.451Z,0.90
2023-01-26T23:26:23.129Z,0.90
2023-01-26T23:28:50.327Z,0.90
2023-01-26T23:31:19.066Z,0.80
2023-01-26T23:33:48.442Z,0.80
2023-01-26T23:36:16.028Z,0.80
2023-01-26T23:38:44.650Z,0.80
2023-01-26T23:41:12.447Z,0.80
2023-01-26T23:43:39.915Z,0.70
2023-01-26T23:46:09.113Z,0.60
2023-01-26T23:48:36.452Z,0.60
2023-01-26T23:51:08.576Z,0.60
2023-01-26T23:53:35.968Z,0.60
2023-01-26T23:56:14.923Z,0.60
2023-01-26T23:58:42.032Z,0.70
